sensor_id;sensor_type;location;lat;lon;timestamp;pressure;altitude;pressure_sealevel;temperature;humidity
77452;BME280;66537;52.370;4.832;2023-04-01T00:01:03;99078.63;;;9.02;99.84
77452;BME280;66537;52.370;4.832;2023-04-01T00:03:29;99076.88;;;8.86;99.96
77452;BME280;66537;52.370;4.832;2023-04-01T00:05:57;99071.56;;;8.89;99.76
77452;BME280;66537;52.370;4.832;2023-04-01T00:08:23;99077.47;;;8.74;99.68
77452;BME280;66537;52.370;4.832;2023-04-01T00:10:49;99083.56;;;8.73;99.77
77452;BME280;66537;52.370;4.832;2023-04-01T00:13:15;99081.66;;;8.76;99.69
77452;BME280;66537;52.370;4.832;2023-04-01T00:15:41;99082.44;;;8.78;100.00
77452;BME280;66537;52.370;4.832;2023-04-01T00:18:07;99080.34;;;8.68;99.81
77452;BME280;66537;52.370;4.832;2023-04-01T00:20:33;99084.00;;;8.64;100.00
77452;BME280;66537;52.370;4.832;2023-04-01T00:22:58;99093.88;;;8.73;100.00
77452;BME280;66537;52.370;4.832;2023-04-01T00:25:23;99091.59;;;8.67;100.00
77452;BME280;66537;52.370;4.832;2023-04-01T00:27:49;99087.09;;;8.53;100.00
77452;BME280;66537;52.370;4.832;2023-04-01T00:30:15;99096.03;;;8.63;100.00
77452;BME280;66537;52.370;4.832;2023-04-01T00:32:40;99095.31;;;8.61;100.00
77452;BME280;66537;52.370;4.832;2023-04-01T00:35:06;99094.84;;;8.70;100.00
77452;BME280;66537;52.370;4.832;2023-04-01T00:37:34;99098.09;;;8.74;100.00
77452;BME280;66537;52.370;4.832;2023-04-01T00:40:01;99095.75;;;8.69;100.00
77452;BME280;66537;52.370;4.832;2023-04-01T00:42:26;99094.00;;;8.87;100.00
77452;BME280;66537;52.370;4.832;2023-04-01T00:44:53;99088.25;;;8.82;100.00
77452;BME280;66537;52.370;4.832;2023-04-01T00:47:19;99097.25;;;8.73;100.00
77452;BME280;66537;52.370;4.832;2023-04-01T00:49:49;99098.19;;;8.89;100.00
77452;BME280;66537;52.370;4.832;2023-04-01T00:52:19;99106.38;;;8.80;99.92
77452;BME280;66537;52.370;4.832;2023-04-01T00:54:47;99098.50;;;8.83;100.00
77452;BME280;66537;52.370;4.832;2023-04-01T00:57:21;99109.88;;;8.79;100.00
77452;BME280;66537;52.370;4.832;2023-04-01T00:59:50;99106.81;;;8.88;100.00
77452;BME280;66537;52.370;4.832;2023-04-01T01:02:18;99110.91;;;8.92;100.00
77452;BME280;66537;52.370;4.832;2023-04-01T01:04:44;99114.72;;;9.02;99.82
77452;BME280;66537;52.370;4.832;2023-04-01T01:07:27;99114.97;;;9.15;99.52
77452;BME280;66537;52.370;4.832;2023-04-01T01:15:32;99120.19;;;8.96;99.14
77452;BME280;66537;52.370;4.832;2023-04-01T01:37:29;99147.19;;;9.06;98.79
77452;BME280;66537;52.370;4.832;2023-04-01T01:39:59;99146.59;;;9.01;98.33
77452;BME280;66537;52.370;4.832;2023-04-01T01:42:27;99153.03;;;8.93;98.46
77452;BME280;66537;52.370;4.832;2023-04-01T01:44:56;99156.81;;;8.86;98.80
77452;BME280;66537;52.370;4.832;2023-04-01T01:47:25;99160.16;;;8.88;98.92
77452;BME280;66537;52.370;4.832;2023-04-01T01:49:51;99164.19;;;8.93;99.09
77452;BME280;66537;52.370;4.832;2023-04-01T01:52:18;99158.94;;;8.95;99.07
77452;BME280;66537;52.370;4.832;2023-04-01T01:54:50;99168.38;;;8.96;98.99
77452;BME280;66537;52.370;4.832;2023-04-01T01:57:17;99170.03;;;8.97;98.78
77452;BME280;66537;52.370;4.832;2023-04-01T01:59:45;99179.13;;;9.04;98.97
77452;BME280;66537;52.370;4.832;2023-04-01T02:02:13;99177.00;;;9.12;99.08
77452;BME280;66537;52.370;4.832;2023-04-01T02:04:42;99184.31;;;9.21;99.03
77452;BME280;66537;52.370;4.832;2023-04-01T02:07:14;99188.09;;;9.31;99.21
77452;BME280;66537;52.370;4.832;2023-04-01T02:09:41;99186.44;;;9.47;99.40
77452;BME280;66537;52.370;4.832;2023-04-01T02:12:08;99196.00;;;9.45;98.79
77452;BME280;66537;52.370;4.832;2023-04-01T02:14:52;99197.06;;;9.41;98.93
77452;BME280;66537;52.370;4.832;2023-04-01T02:17:21;99200.94;;;9.50;98.48
77452;BME280;66537;52.370;4.832;2023-04-01T02:19:50;99201.81;;;9.66;98.57
77452;BME280;66537;52.370;4.832;2023-04-01T02:22:21;99205.25;;;9.66;98.22
77452;BME280;66537;52.370;4.832;2023-04-01T02:24:49;99208.22;;;9.59;98.33
77452;BME280;66537;52.370;4.832;2023-04-01T02:27:15;99214.28;;;9.75;97.88
77452;BME280;66537;52.370;4.832;2023-04-01T02:29:40;99214.91;;;9.63;97.94
77452;BME280;66537;52.370;4.832;2023-04-01T02:32:06;99207.03;;;9.81;97.89
77452;BME280;66537;52.370;4.832;2023-04-01T02:34:32;99220.72;;;9.66;97.74
77452;BME280;66537;52.370;4.832;2023-04-01T02:36:58;99224.63;;;9.75;98.01
77452;BME280;66537;52.370;4.832;2023-04-01T02:39:24;99227.47;;;9.86;97.66
77452;BME280;66537;52.370;4.832;2023-04-01T02:41:51;99227.31;;;9.72;97.85
77452;BME280;66537;52.370;4.832;2023-04-01T02:44:16;99230.75;;;9.72;97.60
77452;BME280;66537;52.370;4.832;2023-04-01T02:46:42;99235.78;;;9.58;97.83
77452;BME280;66537;52.370;4.832;2023-04-01T02:49:07;99240.34;;;9.53;98.18
77452;BME280;66537;52.370;4.832;2023-04-01T02:51:33;99245.59;;;9.52;98.72
77452;BME280;66537;52.370;4.832;2023-04-01T02:53:59;99252.72;;;9.64;99.23
77452;BME280;66537;52.370;4.832;2023-04-01T02:56:24;99255.81;;;9.53;98.83
77452;BME280;66537;52.370;4.832;2023-04-01T02:58:51;99260.06;;;9.54;98.78
77452;BME280;66537;52.370;4.832;2023-04-01T03:01:16;99268.66;;;9.55;99.07
77452;BME280;66537;52.370;4.832;2023-04-01T03:03:42;99267.47;;;9.62;99.25
77452;BME280;66537;52.370;4.832;2023-04-01T03:06:09;99272.00;;;9.74;98.77
77452;BME280;66537;52.370;4.832;2023-04-01T03:08:35;99272.06;;;9.72;98.60
77452;BME280;66537;52.370;4.832;2023-04-01T03:11:01;99285.16;;;9.69;98.05
77452;BME280;66537;52.370;4.832;2023-04-01T03:13:26;99272.06;;;9.72;98.29
77452;BME280;66537;52.370;4.832;2023-04-01T03:15:52;99280.13;;;9.66;97.84
77452;BME280;66537;52.370;4.832;2023-04-01T03:18:18;99288.50;;;9.71;97.35
77452;BME280;66537;52.370;4.832;2023-04-01T03:20:44;99291.00;;;9.73;97.22
77452;BME280;66537;52.370;4.832;2023-04-01T03:23:09;99292.91;;;9.69;96.90
77452;BME280;66537;52.370;4.832;2023-04-01T03:25:34;99294.09;;;9.62;97.09
77452;BME280;66537;52.370;4.832;2023-04-01T03:28:00;99305.56;;;9.74;96.71
77452;BME280;66537;52.370;4.832;2023-04-01T03:30:26;99310.59;;;9.77;96.48
77452;BME280;66537;52.370;4.832;2023-04-01T03:32:51;99323.72;;;9.72;96.52
77452;BME280;66537;52.370;4.832;2023-04-01T03:35:17;99319.69;;;9.67;96.59
77452;BME280;66537;52.370;4.832;2023-04-01T03:37:43;99324.00;;;9.66;96.89
77452;BME280;66537;52.370;4.832;2023-04-01T03:40:09;99332.91;;;9.61;97.12
77452;BME280;66537;52.370;4.832;2023-04-01T03:42:34;99340.84;;;9.56;97.55
77452;BME280;66537;52.370;4.832;2023-04-01T03:45:00;99342.75;;;9.53;97.83
77452;BME280;66537;52.370;4.832;2023-04-01T03:47:25;99346.88;;;9.57;97.95
77452;BME280;66537;52.370;4.832;2023-04-01T03:49:51;99362.59;;;9.52;97.83
77452;BME280;66537;52.370;4.832;2023-04-01T03:52:16;99354.69;;;9.55;98.04
77452;BME280;66537;52.370;4.832;2023-04-01T03:54:41;99361.75;;;9.52;98.48
77452;BME280;66537;52.370;4.832;2023-04-01T03:57:07;99361.81;;;9.50;98.41
77452;BME280;66537;52.370;4.832;2023-04-01T03:59:32;99365.16;;;9.52;98.27
77452;BME280;66537;52.370;4.832;2023-04-01T04:01:58;99368.84;;;9.47;98.31
77452;BME280;66537;52.370;4.832;2023-04-01T04:04:23;99377.31;;;9.50;98.54
77452;BME280;66537;52.370;4.832;2023-04-01T04:06:49;99378.13;;;9.51;98.13
77452;BME280;66537;52.370;4.832;2023-04-01T04:09:14;99379.91;;;9.50;97.83
77452;BME280;66537;52.370;4.832;2023-04-01T04:11:39;99381.91;;;9.44;97.92
77452;BME280;66537;52.370;4.832;2023-04-01T04:14:05;99382.75;;;9.44;98.08
77452;BME280;66537;52.370;4.832;2023-04-01T04:16:30;99387.69;;;9.49;97.62
77452;BME280;66537;52.370;4.832;2023-04-01T04:18:56;99396.34;;;9.48;97.55
77452;BME280;66537;52.370;4.832;2023-04-01T04:21:21;99402.28;;;9.50;97.52
77452;BME280;66537;52.370;4.832;2023-04-01T04:23:46;99397.03;;;9.51;97.42
77452;BME280;66537;52.370;4.832;2023-04-01T04:26:14;99403.75;;;9.55;97.06
77452;BME280;66537;52.370;4.832;2023-04-01T04:28:40;99406.03;;;9.61;97.20
77452;BME280;66537;52.370;4.832;2023-04-01T04:31:05;99412.81;;;9.64;96.81
77452;BME280;66537;52.370;4.832;2023-04-01T04:33:32;99422.78;;;9.53;96.99
77452;BME280;66537;52.370;4.832;2023-04-01T04:35:58;99425.38;;;9.53;96.95
77452;BME280;66537;52.370;4.832;2023-04-01T04:38:24;99426.41;;;9.49;97.17
77452;BME280;66537;52.370;4.832;2023-04-01T04:40:50;99435.19;;;9.45;96.80
77452;BME280;66537;52.370;4.832;2023-04-01T04:43:17;99431.94;;;9.41;97.14
77452;BME280;66537;52.370;4.832;2023-04-01T04:45:42;99441.00;;;9.50;97.09
77452;BME280;66537;52.370;4.832;2023-04-01T04:48:09;99447.13;;;9.47;96.71
77452;BME280;66537;52.370;4.832;2023-04-01T04:50:35;99449.22;;;9.39;96.20
77452;BME280;66537;52.370;4.832;2023-04-01T04:53:00;99446.03;;;9.34;95.81
77452;BME280;66537;52.370;4.832;2023-04-01T04:55:26;99457.63;;;9.44;95.37
77452;BME280;66537;52.370;4.832;2023-04-01T04:57:51;99455.31;;;9.38;94.98
77452;BME280;66537;52.370;4.832;2023-04-01T05:00:17;99464.53;;;9.44;95.26
77452;BME280;66537;52.370;4.832;2023-04-01T05:02:42;99464.25;;;9.50;95.22
77452;BME280;66537;52.370;4.832;2023-04-01T05:05:08;99467.03;;;9.45;95.57
77452;BME280;66537;52.370;4.832;2023-04-01T05:07:33;99474.41;;;9.53;95.54
77452;BME280;66537;52.370;4.832;2023-04-01T05:09:59;99478.53;;;9.57;95.59
77452;BME280;66537;52.370;4.832;2023-04-01T05:12:25;99478.00;;;9.50;95.37
77452;BME280;66537;52.370;4.832;2023-04-01T05:14:50;99491.03;;;9.47;95.34
77452;BME280;66537;52.370;4.832;2023-04-01T05:17:15;99496.84;;;9.52;95.56
77452;BME280;66537;52.370;4.832;2023-04-01T05:19:41;99499.63;;;9.48;95.73
77452;BME280;66537;52.370;4.832;2023-04-01T05:22:06;99502.03;;;9.51;95.45
77452;BME280;66537;52.370;4.832;2023-04-01T05:24:32;99506.50;;;9.47;95.42
77452;BME280;66537;52.370;4.832;2023-04-01T05:26:57;99503.69;;;9.33;95.91
77452;BME280;66537;52.370;4.832;2023-04-01T05:29:24;99511.31;;;9.36;95.73
77452;BME280;66537;52.370;4.832;2023-04-01T05:31:49;99517.25;;;9.38;96.13
77452;BME280;66537;52.370;4.832;2023-04-01T05:34:15;99517.53;;;9.32;96.31
77452;BME280;66537;52.370;4.832;2023-04-01T05:36:41;99521.91;;;9.30;96.03
77452;BME280;66537;52.370;4.832;2023-04-01T05:39:07;99522.81;;;9.29;96.47
77452;BME280;66537;52.370;4.832;2023-04-01T05:41:35;99528.03;;;9.28;96.51
77452;BME280;66537;52.370;4.832;2023-04-01T05:44:00;99538.25;;;9.31;96.83
77452;BME280;66537;52.370;4.832;2023-04-01T05:46:25;99542.19;;;9.19;96.79
77452;BME280;66537;52.370;4.832;2023-04-01T05:48:51;99540.59;;;9.17;97.00
77452;BME280;66537;52.370;4.832;2023-04-01T05:51:16;99555.22;;;9.16;97.32
77452;BME280;66537;52.370;4.832;2023-04-01T05:53:42;99552.13;;;9.08;97.65
77452;BME280;66537;52.370;4.832;2023-04-01T05:56:08;99563.03;;;9.15;97.96
77452;BME280;66537;52.370;4.832;2023-04-01T05:58:35;99561.41;;;9.12;97.50
77452;BME280;66537;52.370;4.832;2023-04-01T06:01:11;99566.66;;;9.10;97.59
77452;BME280;66537;52.370;4.832;2023-04-01T06:03:37;99565.78;;;9.10;97.64
77452;BME280;66537;52.370;4.832;2023-04-01T06:06:02;99572.50;;;9.14;97.75
77452;BME280;66537;52.370;4.832;2023-04-01T06:08:31;99570.91;;;9.12;97.43
77452;BME280;66537;52.370;4.832;2023-04-01T06:11:22;99577.47;;;9.19;97.19
77452;BME280;66537;52.370;4.832;2023-04-01T06:14:28;99584.63;;;9.12;97.13
77452;BME280;66537;52.370;4.832;2023-04-01T06:20:08;99584.59;;;9.14;97.17
77452;BME280;66537;52.370;4.832;2023-04-01T06:31:09;99602.94;;;9.06;97.44
77452;BME280;66537;52.370;4.832;2023-04-01T06:33:48;99607.06;;;9.10;97.65
77452;BME280;66537;52.370;4.832;2023-04-01T06:36:19;99612.22;;;9.10;97.65
77452;BME280;66537;52.370;4.832;2023-04-01T06:41:58;99626.94;;;9.08;97.70
77452;BME280;66537;52.370;4.832;2023-04-01T06:55:18;99648.03;;;8.97;98.30
77452;BME280;66537;52.370;4.832;2023-04-01T06:57:49;99654.69;;;9.03;98.12
77452;BME280;66537;52.370;4.832;2023-04-01T07:00:37;99652.28;;;8.98;98.37
77452;BME280;66537;52.370;4.832;2023-04-01T07:03:21;99660.88;;;8.99;98.57
77452;BME280;66537;52.370;4.832;2023-04-01T07:05:48;99660.88;;;8.99;98.59
77452;BME280;66537;52.370;4.832;2023-04-01T07:08:25;99670.78;;;9.08;98.55
77452;BME280;66537;52.370;4.832;2023-04-01T07:10:56;99677.91;;;9.03;98.78
77452;BME280;66537;52.370;4.832;2023-04-01T07:16:20;99677.25;;;9.18;98.73
77452;BME280;66537;52.370;4.832;2023-04-01T07:21:33;99689.91;;;9.24;98.63
77452;BME280;66537;52.370;4.832;2023-04-01T07:24:05;99691.84;;;9.19;98.58
77452;BME280;66537;52.370;4.832;2023-04-01T07:26:31;99694.63;;;9.15;98.58
77452;BME280;66537;52.370;4.832;2023-04-01T07:28:56;99699.34;;;9.25;98.42
77452;BME280;66537;52.370;4.832;2023-04-01T07:39:51;99716.13;;;9.35;97.71
77452;BME280;66537;52.370;4.832;2023-04-01T07:45:17;99720.25;;;9.39;97.27
77452;BME280;66537;52.370;4.832;2023-04-01T07:47:56;99726.56;;;9.32;97.30
77452;BME280;66537;52.370;4.832;2023-04-01T07:50:28;99729.88;;;9.36;97.39
77452;BME280;66537;52.370;4.832;2023-04-01T07:58:08;99744.41;;;9.38;97.59
77452;BME280;66537;52.370;4.832;2023-04-01T08:19:29;99774.00;;;9.71;96.67
77452;BME280;66537;52.370;4.832;2023-04-01T08:21:58;99767.91;;;9.72;96.17
77452;BME280;66537;52.370;4.832;2023-04-01T08:24:46;99774.47;;;9.79;95.80
77452;BME280;66537;52.370;4.832;2023-04-01T08:29:48;99784.69;;;9.82;95.01
77452;BME280;66537;52.370;4.832;2023-04-01T08:34:43;99787.59;;;9.95;95.26
77452;BME280;66537;52.370;4.832;2023-04-01T08:37:11;99796.53;;;10.08;94.93
77452;BME280;66537;52.370;4.832;2023-04-01T08:42:45;99803.72;;;10.22;94.05
77452;BME280;66537;52.370;4.832;2023-04-01T08:45:35;99799.47;;;9.99;93.92
77452;BME280;66537;52.370;4.832;2023-04-01T08:56:18;99818.69;;;10.14;94.41
77452;BME280;66537;52.370;4.832;2023-04-01T09:01:51;99824.16;;;10.06;93.34
77452;BME280;66537;52.370;4.832;2023-04-01T09:04:41;99826.91;;;10.23;93.85
77452;BME280;66537;52.370;4.832;2023-04-01T09:12:54;99840.06;;;10.37;93.20
77452;BME280;66537;52.370;4.832;2023-04-01T09:23:44;99847.41;;;10.46;92.13
77452;BME280;66537;52.370;4.832;2023-04-01T09:32:21;99858.63;;;10.84;91.33
77452;BME280;66537;52.370;4.832;2023-04-01T09:43:26;99871.28;;;10.53;92.79
77452;BME280;66537;52.370;4.832;2023-04-01T09:46:09;99878.88;;;10.56;92.55
77452;BME280;66537;52.370;4.832;2023-04-01T09:48:46;99891.03;;;10.93;92.67
77452;BME280;66537;52.370;4.832;2023-04-01T10:16:31;99914.09;;;10.78;92.22
77452;BME280;66537;52.370;4.832;2023-04-01T10:25:33;99925.44;;;10.76;92.45
77452;BME280;66537;52.370;4.832;2023-04-01T10:36:22;99933.28;;;11.67;90.86
77452;BME280;66537;52.370;4.832;2023-04-01T10:55:28;99942.75;;;11.68;86.68
77452;BME280;66537;52.370;4.832;2023-04-01T11:03:46;99944.00;;;11.41;87.97
77452;BME280;66537;52.370;4.832;2023-04-01T11:17:52;99968.22;;;11.77;89.52
77452;BME280;66537;52.370;4.832;2023-04-01T11:38:54;99993.59;;;12.07;87.45
77452;BME280;66537;52.370;4.832;2023-04-01T11:44:17;100009.97;;;11.71;87.57
77452;BME280;66537;52.370;4.832;2023-04-01T11:47:10;100011.41;;;11.40;88.15
77452;BME280;66537;52.370;4.832;2023-04-01T11:53:47;100017.63;;;11.74;87.73
77452;BME280;66537;52.370;4.832;2023-04-01T11:56:29;100020.94;;;11.95;87.36
77452;BME280;66537;52.370;4.832;2023-04-01T12:02:09;100021.44;;;12.03;87.34
77452;BME280;66537;52.370;4.832;2023-04-01T12:07:22;100032.69;;;12.38;85.50
77452;BME280;66537;52.370;4.832;2023-04-01T12:12:49;100045.41;;;12.25;84.68
77452;BME280;66537;52.370;4.832;2023-04-01T12:19:35;100050.59;;;12.25;86.01
77452;BME280;66537;52.370;4.832;2023-04-01T12:21:38;100050.78;;;12.56;86.70
77452;BME280;66537;52.370;4.832;2023-04-01T12:24:20;100056.25;;;12.33;84.96
77452;BME280;66537;52.370;4.832;2023-04-01T12:26:59;100064.00;;;12.35;85.14
77452;BME280;66537;52.370;4.832;2023-04-01T12:41:14;100083.63;;;12.22;85.56
77452;BME280;66537;52.370;4.832;2023-04-01T12:46:27;100091.00;;;11.94;85.41
77452;BME280;66537;52.370;4.832;2023-04-01T12:49:17;100090.28;;;11.71;86.66
77452;BME280;66537;52.370;4.832;2023-04-01T12:52:08;100097.94;;;11.74;86.79
77452;BME280;66537;52.370;4.832;2023-04-01T12:57:38;100106.13;;;11.45;88.98
77452;BME280;66537;52.370;4.832;2023-04-01T13:03:19;100115.28;;;11.34;90.83
77452;BME280;66537;52.370;4.832;2023-04-01T13:08:37;100120.66;;;11.48;90.39
77452;BME280;66537;52.370;4.832;2023-04-01T13:11:38;100120.41;;;11.54;90.10
77452;BME280;66537;52.370;4.832;2023-04-01T13:16:58;100134.00;;;11.79;90.40
77452;BME280;66537;52.370;4.832;2023-04-01T13:19:38;100132.81;;;12.05;90.22
77452;BME280;66537;52.370;4.832;2023-04-01T13:22:24;100142.22;;;12.07;89.69
77452;BME280;66537;52.370;4.832;2023-04-01T13:25:04;100136.59;;;11.79;89.09
77452;BME280;66537;52.370;4.832;2023-04-01T13:27:39;100146.50;;;11.90;89.44
77452;BME280;66537;52.370;4.832;2023-04-01T13:35:53;100160.97;;;11.55;88.31
77452;BME280;66537;52.370;4.832;2023-04-01T13:44:17;100170.63;;;11.51;88.57
77452;BME280;66537;52.370;4.832;2023-04-01T13:46:52;100184.53;;;11.49;87.94
77452;BME280;66537;52.370;4.832;2023-04-01T14:11:33;100213.25;;;11.03;90.21
77452;BME280;66537;52.370;4.832;2023-04-01T14:19:53;100232.38;;;10.77;91.35
77452;BME280;66537;52.370;4.832;2023-04-01T14:31:18;100249.81;;;10.50;91.85
77452;BME280;66537;52.370;4.832;2023-04-01T14:36:51;100268.56;;;10.55;90.79
77452;BME280;66537;52.370;4.832;2023-04-01T14:49:53;100277.03;;;10.59;90.11
77452;BME280;66537;52.370;4.832;2023-04-01T14:52:31;100283.84;;;10.61;90.36
77452;BME280;66537;52.370;4.832;2023-04-01T14:55:00;100290.81;;;10.59;90.01
77452;BME280;66537;52.370;4.832;2023-04-01T14:57:31;100291.78;;;10.57;89.49
77452;BME280;66537;52.370;4.832;2023-04-01T15:00:00;100298.59;;;10.59;89.25
77452;BME280;66537;52.370;4.832;2023-04-01T15:10:57;100317.63;;;10.34;90.35
77452;BME280;66537;52.370;4.832;2023-04-01T15:13:50;100333.00;;;10.38;90.21
77452;BME280;66537;52.370;4.832;2023-04-01T15:19:24;100335.44;;;10.43;90.15
77452;BME280;66537;52.370;4.832;2023-04-01T15:22:13;100344.63;;;10.50;90.16
77452;BME280;66537;52.370;4.832;2023-04-01T15:25:16;100344.84;;;10.44;90.06
77452;BME280;66537;52.370;4.832;2023-04-01T15:27:44;100363.97;;;10.40;90.33
77452;BME280;66537;52.370;4.832;2023-04-01T15:30:27;100360.56;;;10.39;90.01
77452;BME280;66537;52.370;4.832;2023-04-01T15:38:41;100376.03;;;10.16;90.40
77452;BME280;66537;52.370;4.832;2023-04-01T15:41:15;100381.13;;;10.18;90.18
77452;BME280;66537;52.370;4.832;2023-04-01T15:43:49;100389.94;;;10.12;90.15
77452;BME280;66537;52.370;4.832;2023-04-01T15:46:41;100394.50;;;10.04;90.20
77452;BME280;66537;52.370;4.832;2023-04-01T15:51:58;100407.19;;;10.12;90.39
77452;BME280;66537;52.370;4.832;2023-04-01T15:54:48;100407.03;;;10.16;90.14
77452;BME280;66537;52.370;4.832;2023-04-01T15:57:25;100414.41;;;10.27;89.44
77452;BME280;66537;52.370;4.832;2023-04-01T16:00:10;100429.06;;;10.26;88.97
77452;BME280;66537;52.370;4.832;2023-04-01T16:02:44;100430.13;;;10.21;88.41
77452;BME280;66537;52.370;4.832;2023-04-01T16:08:09;100435.50;;;10.15;89.17
77452;BME280;66537;52.370;4.832;2023-04-01T16:10:56;100442.47;;;10.13;88.92
77452;BME280;66537;52.370;4.832;2023-04-01T16:22:06;100453.81;;;10.07;88.92
77452;BME280;66537;52.370;4.832;2023-04-01T16:27:44;100466.91;;;10.02;89.19
77452;BME280;66537;52.370;4.832;2023-04-01T16:32:54;100472.34;;;9.93;88.82
77452;BME280;66537;52.370;4.832;2023-04-01T16:35:44;100483.88;;;10.11;89.09
77452;BME280;66537;52.370;4.832;2023-04-01T16:43:28;100507.66;;;9.93;87.88
77452;BME280;66537;52.370;4.832;2023-04-01T17:00:02;100541.72;;;9.78;87.87
77452;BME280;66537;52.370;4.832;2023-04-01T17:06:11;100558.38;;;9.69;89.33
77452;BME280;66537;52.370;4.832;2023-04-01T17:11:48;100563.47;;;9.42;90.71
77452;BME280;66537;52.370;4.832;2023-04-01T17:14:25;100571.53;;;9.30;91.44
77452;BME280;66537;52.370;4.832;2023-04-01T17:17:17;100578.81;;;9.16;92.22
77452;BME280;66537;52.370;4.832;2023-04-01T17:19:56;100589.06;;;9.19;92.73
77452;BME280;66537;52.370;4.832;2023-04-01T17:41:48;100635.31;;;8.92;91.92
77452;BME280;66537;52.370;4.832;2023-04-01T17:49:33;100666.22;;;8.95;90.49
77452;BME280;66537;52.370;4.832;2023-04-01T18:09:23;100709.31;;;8.90;89.90
77452;BME280;66537;52.370;4.832;2023-04-01T18:12:02;100719.66;;;8.90;89.60
77452;BME280;66537;52.370;4.832;2023-04-01T18:14:40;100727.38;;;8.90;88.49
77452;BME280;66537;52.370;4.832;2023-04-01T18:17:13;100726.38;;;8.97;89.26
77452;BME280;66537;52.370;4.832;2023-04-01T18:22:47;100746.38;;;8.88;89.04
77452;BME280;66537;52.370;4.832;2023-04-01T18:25:41;100747.53;;;8.76;89.20
77452;BME280;66537;52.370;4.832;2023-04-01T18:30:32;100763.91;;;8.74;89.19
77452;BME280;66537;52.370;4.832;2023-04-01T18:41:10;100798.78;;;8.50;88.35
77452;BME280;66537;52.370;4.832;2023-04-01T18:51:57;100826.06;;;8.62;89.10
77452;BME280;66537;52.370;4.832;2023-04-01T18:54:33;100830.44;;;8.58;88.10
77452;BME280;66537;52.370;4.832;2023-04-01T18:57:02;100831.91;;;8.70;88.38
77452;BME280;66537;52.370;4.832;2023-04-01T18:59:38;100846.69;;;8.62;88.54
77452;BME280;66537;52.370;4.832;2023-04-01T19:05:04;100845.84;;;8.61;88.42
77452;BME280;66537;52.370;4.832;2023-04-01T19:10:41;100867.66;;;8.45;88.35
77452;BME280;66537;52.370;4.832;2023-04-01T19:18:45;100880.78;;;8.33;87.62
77452;BME280;66537;52.370;4.832;2023-04-01T19:21:25;100892.66;;;8.40;88.21
77452;BME280;66537;52.370;4.832;2023-04-01T19:27:36;100909.81;;;8.43;87.94
77452;BME280;66537;52.370;4.832;2023-04-01T19:35:47;100923.91;;;8.22;86.97
77452;BME280;66537;52.370;4.832;2023-04-01T19:43:39;100941.66;;;8.39;86.56
77452;BME280;66537;52.370;4.832;2023-04-01T19:46:27;100942.88;;;8.18;86.56
77452;BME280;66537;52.370;4.832;2023-04-01T19:48:58;100952.34;;;8.16;86.54
77452;BME280;66537;52.370;4.832;2023-04-01T19:51:52;100956.63;;;8.17;86.61
77452;BME280;66537;52.370;4.832;2023-04-01T19:54:51;100958.53;;;8.06;85.93
77452;BME280;66537;52.370;4.832;2023-04-01T20:00:05;100966.50;;;7.91;86.41
77452;BME280;66537;52.370;4.832;2023-04-01T20:02:43;100975.06;;;7.93;87.86
77452;BME280;66537;52.370;4.832;2023-04-01T20:08:24;100990.22;;;8.11;87.65
77452;BME280;66537;52.370;4.832;2023-04-01T20:13:59;101008.59;;;7.90;86.13
77452;BME280;66537;52.370;4.832;2023-04-01T20:17:15;101017.28;;;7.83;86.00
77452;BME280;66537;52.370;4.832;2023-04-01T20:19:12;101020.84;;;7.74;85.64
77452;BME280;66537;52.370;4.832;2023-04-01T20:21:43;101035.34;;;7.81;85.38
77452;BME280;66537;52.370;4.832;2023-04-01T20:26:47;101031.22;;;7.70;85.67
77452;BME280;66537;52.370;4.832;2023-04-01T20:40:35;101064.75;;;7.65;87.82
77452;BME280;66537;52.370;4.832;2023-04-01T20:46:01;101085.47;;;7.56;87.03
77452;BME280;66537;52.370;4.832;2023-04-01T20:51:05;101093.25;;;7.52;85.46
77452;BME280;66537;52.370;4.832;2023-04-01T21:01:53;101111.41;;;7.38;86.53
77452;BME280;66537;52.370;4.832;2023-04-01T21:04:50;101122.63;;;7.34;87.56
77452;BME280;66537;52.370;4.832;2023-04-01T21:07:41;101118.28;;;7.39;87.86
77452;BME280;66537;52.370;4.832;2023-04-01T21:13:10;101132.72;;;7.49;88.97
77452;BME280;66537;52.370;4.832;2023-04-01T21:25:01;101155.34;;;7.21;88.17
77452;BME280;66537;52.370;4.832;2023-04-01T21:30:32;101172.50;;;7.21;86.48
77452;BME280;66537;52.370;4.832;2023-04-01T21:52:16;101211.94;;;7.23;87.24
77452;BME280;66537;52.370;4.832;2023-04-01T22:05:47;101235.09;;;7.24;85.93
77452;BME280;66537;52.370;4.832;2023-04-01T22:13:49;101255.66;;;7.24;86.49
77452;BME280;66537;52.370;4.832;2023-04-01T22:16:39;101259.84;;;7.36;86.32
77452;BME280;66537;52.370;4.832;2023-04-01T22:19:17;101270.19;;;7.35;86.00
77452;BME280;66537;52.370;4.832;2023-04-01T22:21:59;101270.19;;;7.33;85.65
77452;BME280;66537;52.370;4.832;2023-04-01T22:32:49;101286.47;;;7.37;85.53
77452;BME280;66537;52.370;4.832;2023-04-01T22:35:54;101286.56;;;7.23;84.58
77452;BME280;66537;52.370;4.832;2023-04-01T22:38:54;101302.13;;;7.09;84.32
77452;BME280;66537;52.370;4.832;2023-04-01T22:44:05;101310.75;;;7.02;84.75
77452;BME280;66537;52.370;4.832;2023-04-01T22:46:52;101315.84;;;7.10;84.67
77452;BME280;66537;52.370;4.832;2023-04-01T22:49:29;101318.44;;;7.01;83.91
77452;BME280;66537;52.370;4.832;2023-04-01T22:54:46;101314.19;;;6.97;84.25
77452;BME280;66537;52.370;4.832;2023-04-01T22:57:35;101327.00;;;7.07;83.96
77452;BME280;66537;52.370;4.832;2023-04-01T23:05:47;101348.38;;;7.15;84.16
77452;BME280;66537;52.370;4.832;2023-04-01T23:11:30;101353.59;;;7.03;84.60
77452;BME280;66537;52.370;4.832;2023-04-01T23:19:49;101367.41;;;6.90;83.23
77452;BME280;66537;52.370;4.832;2023-04-01T23:22:31;101378.56;;;6.86;83.06
77452;BME280;66537;52.370;4.832;2023-04-01T23:35:57;101404.41;;;6.52;82.30
77452;BME280;66537;52.370;4.832;2023-04-01T23:38:35;101412.16;;;6.44;83.52
77452;BME280;66537;52.370;4.832;2023-04-01T23:41:02;101408.72;;;6.50;83.12
77452;BME280;66537;52.370;4.832;2023-04-01T23:43:37;101408.69;;;6.56;84.02
77452;BME280;66537;52.370;4.832;2023-04-01T23:46:04;101417.25;;;6.53;83.10